sensor_id;sensor_type;location;lat;lon;timestamp;P1;durP1;ratioP1;P2;durP2;ratioP2
80334;SDS011;69653;52.674;13.574;2023-09-12T00:01:47;13.97;;;9.17;;
80334;SDS011;69653;52.674;13.574;2023-09-12T00:04:12;12.98;;;8.88;;
80334;SDS011;69653;52.674;13.574;2023-09-12T00:06:37;15.13;;;8.83;;
80334;SDS011;69653;52.674;13.574;2023-09-12T00:09:03;16.23;;;9.17;;
80334;SDS011;69653;52.674;13.574;2023-09-12T00:11:30;18.25;;;9.23;;
80334;SDS011;69653;52.674;13.574;2023-09-12T00:13:56;13.35;;;8.98;;
80334;SDS011;69653;52.674;13.574;2023-09-12T00:16:21;13.88;;;9.35;;
80334;SDS011;69653;52.674;13.574;2023-09-12T00:18:46;16.97;;;10.70;;
80334;SDS011;69653;52.674;13.574;2023-09-12T00:21:12;14.48;;;10.00;;
80334;SDS011;69653;52.674;13.574;2023-09-12T00:23:37;14.50;;;9.67;;
80334;SDS011;69653;52.674;13.574;2023-09-12T00:26:02;15.67;;;9.77;;
80334;SDS011;69653;52.674;13.574;2023-09-12T00:28:28;16.47;;;9.27;;
80334;SDS011;69653;52.674;13.574;2023-09-12T00:30:53;13.17;;;9.47;;
80334;SDS011;69653;52.674;13.574;2023-09-12T00:33:18;15.20;;;9.67;;
80334;SDS011;69653;52.674;13.574;2023-09-12T00:35:44;14.07;;;10.30;;
80334;SDS011;69653;52.674;13.574;2023-09-12T00:38:10;17.02;;;9.77;;
80334;SDS011;69653;52.674;13.574;2023-09-12T00:40:35;14.88;;;10.38;;
80334;SDS011;69653;52.674;13.574;2023-09-12T00:43:02;15.75;;;10.25;;
80334;SDS011;69653;52.674;13.574;2023-09-12T00:45:27;17.88;;;9.20;;
80334;SDS011;69653;52.674;13.574;2023-09-12T00:47:53;14.52;;;8.98;;
80334;SDS011;69653;52.674;13.574;2023-09-12T00:50:20;13.25;;;9.57;;
80334;SDS011;69653;52.674;13.574;2023-09-12T00:52:47;14.50;;;9.13;;
80334;SDS011;69653;52.674;13.574;2023-09-12T00:55:14;15.65;;;8.40;;
80334;SDS011;69653;52.674;13.574;2023-09-12T00:57:39;14.43;;;9.63;;
80334;SDS011;69653;52.674;13.574;2023-09-12T01:00:06;16.10;;;9.07;;
80334;SDS011;69653;52.674;13.574;2023-09-12T01:02:39;13.63;;;8.20;;
80334;SDS011;69653;52.674;13.574;2023-09-12T01:05:06;12.20;;;8.55;;
80334;SDS011;69653;52.674;13.574;2023-09-12T01:07:33;13.27;;;9.60;;
80334;SDS011;69653;52.674;13.574;2023-09-12T01:09:59;13.23;;;9.30;;
80334;SDS011;69653;52.674;13.574;2023-09-12T01:12:24;13.13;;;8.83;;
80334;SDS011;69653;52.674;13.574;2023-09-12T01:14:49;14.90;;;9.43;;
80334;SDS011;69653;52.674;13.574;2023-09-12T01:17:15;13.07;;;9.90;;
80334;SDS011;69653;52.674;13.574;2023-09-12T01:19:40;13.45;;;9.52;;
80334;SDS011;69653;52.674;13.574;2023-09-12T01:22:13;12.73;;;9.20;;
80334;SDS011;69653;52.674;13.574;2023-09-12T01:25:08;17.25;;;10.38;;
80334;SDS011;69653;52.674;13.574;2023-09-12T01:27:56;18.02;;;10.55;;
80334;SDS011;69653;52.674;13.574;2023-09-12T01:30:24;19.50;;;11.50;;
80334;SDS011;69653;52.674;13.574;2023-09-12T01:32:52;15.18;;;10.82;;
80334;SDS011;69653;52.674;13.574;2023-09-12T01:35:18;18.48;;;12.75;;
80334;SDS011;69653;52.674;13.574;2023-09-12T01:37:44;17.90;;;11.77;;
80334;SDS011;69653;52.674;13.574;2023-09-12T01:40:09;18.30;;;11.40;;
80334;SDS011;69653;52.674;13.574;2023-09-12T01:42:36;19.67;;;13.50;;
80334;SDS011;69653;52.674;13.574;2023-09-12T01:45:03;18.67;;;12.70;;
80334;SDS011;69653;52.674;13.574;2023-09-12T01:47:30;17.48;;;12.98;;
80334;SDS011;69653;52.674;13.574;2023-09-12T01:49:57;24.98;;;13.57;;
80334;SDS011;69653;52.674;13.574;2023-09-12T01:52:25;18.08;;;12.93;;
80334;SDS011;69653;52.674;13.574;2023-09-12T01:54:52;19.58;;;12.95;;
80334;SDS011;69653;52.674;13.574;2023-09-12T01:57:18;19.58;;;13.63;;
80334;SDS011;69653;52.674;13.574;2023-09-12T01:59:48;21.33;;;14.07;;
80334;SDS011;69653;52.674;13.574;2023-09-12T02:02:17;25.05;;;15.52;;
80334;SDS011;69653;52.674;13.574;2023-09-12T02:05:28;26.77;;;14.45;;
80334;SDS011;69653;52.674;13.574;2023-09-12T02:07:32;21.40;;;14.45;;
80334;SDS011;69653;52.674;13.574;2023-09-12T02:10:01;24.33;;;16.02;;
80334;SDS011;69653;52.674;13.574;2023-09-12T02:12:29;23.52;;;14.85;;
80334;SDS011;69653;52.674;13.574;2023-09-12T02:14:56;20.92;;;14.80;;
80334;SDS011;69653;52.674;13.574;2023-09-12T02:17:21;20.70;;;14.37;;
80334;SDS011;69653;52.674;13.574;2023-09-12T02:19:47;23.27;;;15.90;;
80334;SDS011;69653;52.674;13.574;2023-09-12T02:22:13;26.02;;;18.98;;
80334;SDS011;69653;52.674;13.574;2023-09-12T02:24:38;32.57;;;24.53;;
80334;SDS011;69653;52.674;13.574;2023-09-12T02:27:03;43.90;;;32.07;;
80334;SDS011;69653;52.674;13.574;2023-09-12T02:29:29;42.35;;;33.05;;
80334;SDS011;69653;52.674;13.574;2023-09-12T02:31:55;46.25;;;36.03;;
80334;SDS011;69653;52.674;13.574;2023-09-12T02:34:21;42.92;;;32.22;;
80334;SDS011;69653;52.674;13.574;2023-09-12T02:36:46;46.90;;;36.03;;
80334;SDS011;69653;52.674;13.574;2023-09-12T02:39:11;43.50;;;33.67;;
80334;SDS011;69653;52.674;13.574;2023-09-12T02:41:36;39.93;;;31.07;;
80334;SDS011;69653;52.674;13.574;2023-09-12T02:44:02;37.87;;;28.00;;
80334;SDS011;69653;52.674;13.574;2023-09-12T02:46:27;32.50;;;25.73;;
80334;SDS011;69653;52.674;13.574;2023-09-12T02:48:52;31.00;;;24.53;;
80334;SDS011;69653;52.674;13.574;2023-09-12T02:51:18;29.53;;;22.10;;
80334;SDS011;69653;52.674;13.574;2023-09-12T02:53:43;25.10;;;19.27;;
80334;SDS011;69653;52.674;13.574;2023-09-12T02:56:08;24.27;;;18.07;;
80334;SDS011;69653;52.674;13.574;2023-09-12T02:58:33;24.80;;;19.00;;
80334;SDS011;69653;52.674;13.574;2023-09-12T03:00:59;24.77;;;18.93;;
80334;SDS011;69653;52.674;13.574;2023-09-12T03:03:24;21.73;;;16.02;;
80334;SDS011;69653;52.674;13.574;2023-09-12T03:05:57;23.60;;;16.03;;
80334;SDS011;69653;52.674;13.574;2023-09-12T03:08:27;19.33;;;16.05;;
80334;SDS011;69653;52.674;13.574;2023-09-12T03:10:54;20.30;;;14.13;;
80334;SDS011;69653;52.674;13.574;2023-09-12T03:13:20;22.40;;;15.38;;
80334;SDS011;69653;52.674;13.574;2023-09-12T03:15:45;22.23;;;15.87;;
80334;SDS011;69653;52.674;13.574;2023-09-12T03:18:10;21.97;;;16.30;;
80334;SDS011;69653;52.674;13.574;2023-09-12T03:20:37;25.37;;;17.30;;
80334;SDS011;69653;52.674;13.574;2023-09-12T03:23:03;22.33;;;17.08;;
80334;SDS011;69653;52.674;13.574;2023-09-12T03:25:28;22.73;;;17.60;;
80334;SDS011;69653;52.674;13.574;2023-09-12T03:27:54;24.87;;;18.47;;
80334;SDS011;69653;52.674;13.574;2023-09-12T03:30:19;23.77;;;16.80;;
80334;SDS011;69653;52.674;13.574;2023-09-12T03:32:45;21.92;;;16.27;;
80334;SDS011;69653;52.674;13.574;2023-09-12T03:35:10;18.40;;;13.77;;
80334;SDS011;69653;52.674;13.574;2023-09-12T03:37:36;17.67;;;13.50;;
80334;SDS011;69653;52.674;13.574;2023-09-12T03:40:05;18.58;;;14.07;;
80334;SDS011;69653;52.674;13.574;2023-09-12T03:42:31;19.63;;;14.40;;
80334;SDS011;69653;52.674;13.574;2023-09-12T03:44:57;19.40;;;13.13;;
80334;SDS011;69653;52.674;13.574;2023-09-12T03:47:22;19.35;;;13.70;;
80334;SDS011;69653;52.674;13.574;2023-09-12T03:49:47;18.07;;;13.10;;
80334;SDS011;69653;52.674;13.574;2023-09-12T03:52:13;18.30;;;11.80;;
80334;SDS011;69653;52.674;13.574;2023-09-12T03:54:38;17.43;;;12.37;;
80334;SDS011;69653;52.674;13.574;2023-09-12T03:57:03;16.40;;;11.70;;
80334;SDS011;69653;52.674;13.574;2023-09-12T03:59:29;16.80;;;11.77;;
80334;SDS011;69653;52.674;13.574;2023-09-12T04:01:54;16.50;;;11.90;;
80334;SDS011;69653;52.674;13.574;2023-09-12T04:04:19;14.80;;;11.23;;
80334;SDS011;69653;52.674;13.574;2023-09-12T04:06:45;15.27;;;11.60;;
80334;SDS011;69653;52.674;13.574;2023-09-12T04:09:10;16.23;;;11.07;;
80334;SDS011;69653;52.674;13.574;2023-09-12T04:11:35;15.73;;;11.02;;
80334;SDS011;69653;52.674;13.574;2023-09-12T04:14:01;16.97;;;11.40;;
80334;SDS011;69653;52.674;13.574;2023-09-12T04:16:26;14.40;;;10.90;;
80334;SDS011;69653;52.674;13.574;2023-09-12T04:18:51;14.80;;;11.03;;
80334;SDS011;69653;52.674;13.574;2023-09-12T04:21:17;16.63;;;11.20;;
80334;SDS011;69653;52.674;13.574;2023-09-12T04:23:42;18.90;;;12.90;;
80334;SDS011;69653;52.674;13.574;2023-09-12T04:26:07;16.20;;;11.07;;
80334;SDS011;69653;52.674;13.574;2023-09-12T04:28:32;15.33;;;11.07;;
80334;SDS011;69653;52.674;13.574;2023-09-12T04:31:04;14.23;;;10.87;;
80334;SDS011;69653;52.674;13.574;2023-09-12T04:33:29;16.42;;;11.75;;
80334;SDS011;69653;52.674;13.574;2023-09-12T04:35:56;16.70;;;11.07;;
80334;SDS011;69653;52.674;13.574;2023-09-12T04:38:23;16.42;;;11.50;;
80334;SDS011;69653;52.674;13.574;2023-09-12T04:40:55;18.58;;;12.30;;
80334;SDS011;69653;52.674;13.574;2023-09-12T04:43:21;15.88;;;11.10;;
80334;SDS011;69653;52.674;13.574;2023-09-12T04:45:46;17.02;;;11.65;;
80334;SDS011;69653;52.674;13.574;2023-09-12T04:48:13;55.47;;;34.20;;
80334;SDS011;69653;52.674;13.574;2023-09-12T04:50:41;27.50;;;17.48;;
80334;SDS011;69653;52.674;13.574;2023-09-12T04:53:07;26.05;;;18.33;;
80334;SDS011;69653;52.674;13.574;2023-09-12T04:55:34;18.87;;;12.87;;
80334;SDS011;69653;52.674;13.574;2023-09-12T04:58:04;19.52;;;12.55;;
80334;SDS011;69653;52.674;13.574;2023-09-12T05:00:30;14.35;;;11.20;;
80334;SDS011;69653;52.674;13.574;2023-09-12T05:02:56;19.52;;;11.90;;
80334;SDS011;69653;52.674;13.574;2023-09-12T05:05:21;18.70;;;11.47;;
80334;SDS011;69653;52.674;13.574;2023-09-12T05:07:47;23.45;;;16.45;;
80334;SDS011;69653;52.674;13.574;2023-09-12T05:10:12;20.83;;;13.73;;
80334;SDS011;69653;52.674;13.574;2023-09-12T05:12:38;26.13;;;16.73;;
80334;SDS011;69653;52.674;13.574;2023-09-12T05:15:03;17.90;;;12.13;;
80334;SDS011;69653;52.674;13.574;2023-09-12T05:17:29;17.92;;;11.85;;
80334;SDS011;69653;52.674;13.574;2023-09-12T05:19:54;19.58;;;13.05;;
80334;SDS011;69653;52.674;13.574;2023-09-12T05:22:20;18.37;;;13.10;;
80334;SDS011;69653;52.674;13.574;2023-09-12T05:24:45;25.00;;;15.53;;
80334;SDS011;69653;52.674;13.574;2023-09-12T05:27:11;22.27;;;14.65;;
80334;SDS011;69653;52.674;13.574;2023-09-12T05:29:36;18.08;;;12.20;;
80334;SDS011;69653;52.674;13.574;2023-09-12T05:32:02;19.48;;;11.23;;
80334;SDS011;69653;52.674;13.574;2023-09-12T05:34:28;19.27;;;11.60;;
80334;SDS011;69653;52.674;13.574;2023-09-12T05:36:53;19.97;;;12.00;;
80334;SDS011;69653;52.674;13.574;2023-09-12T05:39:19;17.37;;;11.40;;
80334;SDS011;69653;52.674;13.574;2023-09-12T05:41:44;18.25;;;11.63;;
80334;SDS011;69653;52.674;13.574;2023-09-12T05:44:09;18.63;;;12.03;;
80334;SDS011;69653;52.674;13.574;2023-09-12T05:46:37;49.03;;;32.72;;
80334;SDS011;69653;52.674;13.574;2023-09-12T05:49:03;22.23;;;16.40;;
80334;SDS011;69653;52.674;13.574;2023-09-12T05:51:28;23.75;;;15.30;;
80334;SDS011;69653;52.674;13.574;2023-09-12T05:53:54;15.73;;;11.15;;
80334;SDS011;69653;52.674;13.574;2023-09-12T05:56:19;18.03;;;10.87;;
80334;SDS011;69653;52.674;13.574;2023-09-12T05:58:46;16.25;;;11.30;;
80334;SDS011;69653;52.674;13.574;2023-09-12T06:01:11;15.63;;;10.30;;
80334;SDS011;69653;52.674;13.574;2023-09-12T06:03:36;19.60;;;11.73;;
80334;SDS011;69653;52.674;13.574;2023-09-12T06:06:02;14.97;;;11.13;;
80334;SDS011;69653;52.674;13.574;2023-09-12T06:08:27;16.73;;;10.73;;
80334;SDS011;69653;52.674;13.574;2023-09-12T06:10:53;18.57;;;11.97;;
80334;SDS011;69653;52.674;13.574;2023-09-12T06:13:19;16.15;;;11.77;;
80334;SDS011;69653;52.674;13.574;2023-09-12T06:15:44;17.17;;;11.03;;
80334;SDS011;69653;52.674;13.574;2023-09-12T06:18:10;17.43;;;10.77;;
80334;SDS011;69653;52.674;13.574;2023-09-12T06:20:35;18.60;;;11.30;;
80334;SDS011;69653;52.674;13.574;2023-09-12T06:23:01;17.55;;;11.23;;
80334;SDS011;69653;52.674;13.574;2023-09-12T06:25:26;17.13;;;11.63;;
80334;SDS011;69653;52.674;13.574;2023-09-12T06:27:53;20.83;;;11.00;;
80334;SDS011;69653;52.674;13.574;2023-09-12T06:30:19;17.93;;;11.00;;
80334;SDS011;69653;52.674;13.574;2023-09-12T06:32:44;17.05;;;11.02;;
80334;SDS011;69653;52.674;13.574;2023-09-12T06:35:09;15.70;;;10.47;;
80334;SDS011;69653;52.674;13.574;2023-09-12T06:37:36;15.00;;;11.48;;
80334;SDS011;69653;52.674;13.574;2023-09-12T06:40:02;21.52;;;13.45;;
80334;SDS011;69653;52.674;13.574;2023-09-12T06:42:28;20.13;;;13.73;;
80334;SDS011;69653;52.674;13.574;2023-09-12T06:44:54;17.85;;;11.55;;
80334;SDS011;69653;52.674;13.574;2023-09-12T06:47:19;15.80;;;11.63;;
80334;SDS011;69653;52.674;13.574;2023-09-12T06:49:44;19.33;;;11.10;;
80334;SDS011;69653;52.674;13.574;2023-09-12T06:52:10;18.37;;;10.90;;
80334;SDS011;69653;52.674;13.574;2023-09-12T06:54:35;19.17;;;10.93;;
80334;SDS011;69653;52.674;13.574;2023-09-12T06:57:00;16.53;;;9.93;;
80334;SDS011;69653;52.674;13.574;2023-09-12T06:59:26;15.30;;;10.00;;
80334;SDS011;69653;52.674;13.574;2023-09-12T07:01:51;19.07;;;12.20;;
80334;SDS011;69653;52.674;13.574;2023-09-12T07:04:16;15.07;;;9.50;;
80334;SDS011;69653;52.674;13.574;2023-09-12T07:06:42;15.43;;;10.03;;
80334;SDS011;69653;52.674;13.574;2023-09-12T07:09:07;14.48;;;9.57;;
80334;SDS011;69653;52.674;13.574;2023-09-12T07:11:34;15.68;;;9.70;;
80334;SDS011;69653;52.674;13.574;2023-09-12T07:13:59;14.35;;;9.43;;
80334;SDS011;69653;52.674;13.574;2023-09-12T07:16:25;14.17;;;9.33;;
80334;SDS011;69653;52.674;13.574;2023-09-12T07:18:50;14.47;;;9.53;;
80334;SDS011;69653;52.674;13.574;2023-09-12T07:21:15;15.48;;;9.18;;
80334;SDS011;69653;52.674;13.574;2023-09-12T07:23:41;13.63;;;8.00;;
80334;SDS011;69653;52.674;13.574;2023-09-12T07:26:11;12.43;;;8.00;;
80334;SDS011;69653;52.674;13.574;2023-09-12T07:28:38;12.25;;;7.80;;
80334;SDS011;69653;52.674;13.574;2023-09-12T07:31:03;16.33;;;7.83;;
80334;SDS011;69653;52.674;13.574;2023-09-12T07:33:28;11.77;;;8.10;;
80334;SDS011;69653;52.674;13.574;2023-09-12T07:35:53;11.67;;;7.70;;
80334;SDS011;69653;52.674;13.574;2023-09-12T07:38:20;13.30;;;7.63;;
80334;SDS011;69653;52.674;13.574;2023-09-12T07:40:45;11.75;;;7.35;;
80334;SDS011;69653;52.674;13.574;2023-09-12T07:43:11;12.60;;;8.30;;
80334;SDS011;69653;52.674;13.574;2023-09-12T07:45:36;16.40;;;7.90;;
80334;SDS011;69653;52.674;13.574;2023-09-12T07:48:06;11.77;;;7.18;;
80334;SDS011;69653;52.674;13.574;2023-09-12T07:50:32;10.57;;;6.63;;
80334;SDS011;69653;52.674;13.574;2023-09-12T07:52:58;11.07;;;6.93;;
80334;SDS011;69653;52.674;13.574;2023-09-12T07:55:23;11.60;;;7.07;;
80334;SDS011;69653;52.674;13.574;2023-09-12T07:57:48;12.23;;;7.50;;
80334;SDS011;69653;52.674;13.574;2023-09-12T08:00:13;11.00;;;6.67;;
80334;SDS011;69653;52.674;13.574;2023-09-12T08:02:39;15.75;;;7.15;;
80334;SDS011;69653;52.674;13.574;2023-09-12T08:05:04;12.75;;;7.13;;
80334;SDS011;69653;52.674;13.574;2023-09-12T08:07:31;11.35;;;6.22;;
80334;SDS011;69653;52.674;13.574;2023-09-12T08:09:57;15.60;;;6.95;;
80334;SDS011;69653;52.674;13.574;2023-09-12T08:12:23;11.63;;;7.18;;
80334;SDS011;69653;52.674;13.574;2023-09-12T08:14:50;13.48;;;7.05;;
80334;SDS011;69653;52.674;13.574;2023-09-12T08:17:16;11.77;;;6.60;;
80334;SDS011;69653;52.674;13.574;2023-09-12T08:19:41;11.03;;;6.70;;
80334;SDS011;69653;52.674;13.574;2023-09-12T08:22:07;10.05;;;6.30;;
80334;SDS011;69653;52.674;13.574;2023-09-12T08:24:33;12.20;;;6.03;;
80334;SDS011;69653;52.674;13.574;2023-09-12T08:27:03;21.92;;;13.77;;
80334;SDS011;69653;52.674;13.574;2023-09-12T08:29:29;11.52;;;6.65;;
80334;SDS011;69653;52.674;13.574;2023-09-12T08:31:54;14.90;;;8.80;;
80334;SDS011;69653;52.674;13.574;2023-09-12T08:34:20;10.53;;;6.00;;
80334;SDS011;69653;52.674;13.574;2023-09-12T08:36:45;15.25;;;5.97;;
80334;SDS011;69653;52.674;13.574;2023-09-12T08:39:12;15.20;;;5.83;;
80334;SDS011;69653;52.674;13.574;2023-09-12T08:41:39;13.48;;;5.45;;
80334;SDS011;69653;52.674;13.574;2023-09-12T08:44:05;14.70;;;5.80;;
80334;SDS011;69653;52.674;13.574;2023-09-12T08:46:31;9.90;;;5.72;;
80334;SDS011;69653;52.674;13.574;2023-09-12T08:48:57;8.87;;;5.50;;
80334;SDS011;69653;52.674;13.574;2023-09-12T08:51:23;10.63;;;5.32;;
80334;SDS011;69653;52.674;13.574;2023-09-12T08:53:51;12.98;;;5.97;;
80334;SDS011;69653;52.674;13.574;2023-09-12T08:56:20;10.80;;;5.75;;
80334;SDS011;69653;52.674;13.574;2023-09-12T08:58:45;10.32;;;5.25;;
80334;SDS011;69653;52.674;13.574;2023-09-12T09:01:13;15.45;;;6.15;;
80334;SDS011;69653;52.674;13.574;2023-09-12T09:03:41;16.63;;;6.43;;
80334;SDS011;69653;52.674;13.574;2023-09-12T09:06:08;11.60;;;5.13;;
80334;SDS011;69653;52.674;13.574;2023-09-12T09:08:35;13.85;;;5.43;;
80334;SDS011;69653;52.674;13.574;2023-09-12T09:11:01;14.73;;;5.80;;
80334;SDS011;69653;52.674;13.574;2023-09-12T09:13:31;12.32;;;5.50;;
80334;SDS011;69653;52.674;13.574;2023-09-12T09:21:21;17.95;;;5.97;;
80334;SDS011;69653;52.674;13.574;2023-09-12T09:23:49;11.05;;;5.50;;
80334;SDS011;69653;52.674;13.574;2023-09-12T09:26:15;12.15;;;5.72;;
80334;SDS011;69653;52.674;13.574;2023-09-12T09:28:40;11.50;;;5.35;;
80334;SDS011;69653;52.674;13.574;2023-09-12T09:31:10;12.93;;;6.10;;
80334;SDS011;69653;52.674;13.574;2023-09-12T09:33:36;9.35;;;5.50;;
80334;SDS011;69653;52.674;13.574;2023-09-12T09:36:03;8.70;;;4.80;;
80334;SDS011;69653;52.674;13.574;2023-09-12T09:38:29;8.68;;;5.45;;
80334;SDS011;69653;52.674;13.574;2023-09-12T09:40:54;12.93;;;5.22;;
80334;SDS011;69653;52.674;13.574;2023-09-12T09:43:20;11.70;;;5.25;;
80334;SDS011;69653;52.674;13.574;2023-09-12T09:45:46;13.15;;;5.15;;
80334;SDS011;69653;52.674;13.574;2023-09-12T09:48:17;13.98;;;5.40;;
80334;SDS011;69653;52.674;13.574;2023-09-12T09:50:46;12.43;;;5.15;;
80334;SDS011;69653;52.674;13.574;2023-09-12T09:53:12;12.82;;;5.30;;
80334;SDS011;69653;52.674;13.574;2023-09-12T09:55:37;15.30;;;5.47;;
80334;SDS011;69653;52.674;13.574;2023-09-12T09:58:06;13.27;;;5.40;;
80334;SDS011;69653;52.674;13.574;2023-09-12T10:00:33;9.80;;;5.20;;
80334;SDS011;69653;52.674;13.574;2023-09-12T10:03:02;12.52;;;5.68;;
80334;SDS011;69653;52.674;13.574;2023-09-12T10:05:29;11.40;;;4.93;;
80334;SDS011;69653;52.674;13.574;2023-09-12T10:07:56;11.52;;;6.07;;
80334;SDS011;69653;52.674;13.574;2023-09-12T10:10:24;15.25;;;5.93;;
80334;SDS011;69653;52.674;13.574;2023-09-12T10:12:50;15.00;;;5.35;;
80334;SDS011;69653;52.674;13.574;2023-09-12T10:15:20;13.10;;;5.47;;
80334;SDS011;69653;52.674;13.574;2023-09-12T10:17:51;14.85;;;5.78;;
80334;SDS011;69653;52.674;13.574;2023-09-12T10:20:28;9.73;;;5.57;;
80334;SDS011;69653;52.674;13.574;2023-09-12T10:23:07;11.50;;;5.25;;
80334;SDS011;69653;52.674;13.574;2023-09-12T10:25:44;11.55;;;5.65;;
80334;SDS011;69653;52.674;13.574;2023-09-12T10:28:10;15.35;;;5.90;;
80334;SDS011;69653;52.674;13.574;2023-09-12T10:30:36;15.30;;;5.47;;
80334;SDS011;69653;52.674;13.574;2023-09-12T10:33:02;13.02;;;6.05;;
80334;SDS011;69653;52.674;13.574;2023-09-12T10:35:31;11.25;;;5.95;;
80334;SDS011;69653;52.674;13.574;2023-09-12T10:38:00;13.23;;;6.10;;
80334;SDS011;69653;52.674;13.574;2023-09-12T10:40:29;12.52;;;5.60;;
80334;SDS011;69653;52.674;13.574;2023-09-12T10:42:55;12.80;;;5.55;;
80334;SDS011;69653;52.674;13.574;2023-09-12T10:45:23;13.27;;;5.18;;
80334;SDS011;69653;52.674;13.574;2023-09-12T10:47:48;11.10;;;5.70;;
80334;SDS011;69653;52.674;13.574;2023-09-12T10:50:14;9.00;;;5.03;;
80334;SDS011;69653;52.674;13.574;2023-09-12T10:52:39;13.63;;;6.25;;
80334;SDS011;69653;52.674;13.574;2023-09-12T10:55:06;12.70;;;5.63;;
80334;SDS011;69653;52.674;13.574;2023-09-12T10:57:33;11.18;;;5.07;;
80334;SDS011;69653;52.674;13.574;2023-09-12T11:02:28;12.60;;;5.50;;
80334;SDS011;69653;52.674;13.574;2023-09-12T11:05:05;10.00;;;4.97;;
80334;SDS011;69653;52.674;13.574;2023-09-12T11:12:41;13.98;;;5.35;;
80334;SDS011;69653;52.674;13.574;2023-09-12T11:15:07;12.82;;;5.03;;
80334;SDS011;69653;52.674;13.574;2023-09-12T11:17:37;13.68;;;5.20;;
80334;SDS011;69653;52.674;13.574;2023-09-12T11:20:03;11.45;;;5.25;;
80334;SDS011;69653;52.674;13.574;2023-09-12T11:22:41;14.20;;;4.53;;
80334;SDS011;69653;52.674;13.574;2023-09-12T11:25:21;14.75;;;5.55;;
80334;SDS011;69653;52.674;13.574;2023-09-12T11:30:26;11.68;;;5.18;;
80334;SDS011;69653;52.674;13.574;2023-09-12T11:32:55;14.23;;;5.97;;
80334;SDS011;69653;52.674;13.574;2023-09-12T11:35:22;13.07;;;6.32;;
80334;SDS011;69653;52.674;13.574;2023-09-12T11:37:49;12.30;;;5.20;;
80334;SDS011;69653;52.674;13.574;2023-09-12T11:42:49;13.02;;;5.32;;
80334;SDS011;69653;52.674;13.574;2023-09-12T11:45:17;11.00;;;6.05;;
80334;SDS011;69653;52.674;13.574;2023-09-12T11:47:45;8.95;;;5.18;;
80334;SDS011;69653;52.674;13.574;2023-09-12T11:50:30;9.45;;;5.18;;
80334;SDS011;69653;52.674;13.574;2023-09-12T11:53:02;9.27;;;4.97;;
80334;SDS011;69653;52.674;13.574;2023-09-12T11:55:34;10.43;;;5.20;;
80334;SDS011;69653;52.674;13.574;2023-09-12T11:58:02;8.95;;;5.40;;
80334;SDS011;69653;52.674;13.574;2023-09-12T12:00:28;8.55;;;4.78;;
80334;SDS011;69653;52.674;13.574;2023-09-12T12:02:54;11.55;;;5.13;;
80334;SDS011;69653;52.674;13.574;2023-09-12T12:05:20;9.55;;;4.18;;
80334;SDS011;69653;52.674;13.574;2023-09-12T12:07:46;11.40;;;4.53;;
80334;SDS011;69653;52.674;13.574;2023-09-12T12:10:12;10.07;;;4.35;;
80334;SDS011;69653;52.674;13.574;2023-09-12T12:12:38;8.65;;;4.93;;
80334;SDS011;69653;52.674;13.574;2023-09-12T12:15:03;12.53;;;4.90;;
80334;SDS011;69653;52.674;13.574;2023-09-12T12:17:35;9.38;;;4.55;;
80334;SDS011;69653;52.674;13.574;2023-09-12T12:20:02;10.50;;;4.57;;
80334;SDS011;69653;52.674;13.574;2023-09-12T12:22:32;6.53;;;4.10;;
80334;SDS011;69653;52.674;13.574;2023-09-12T12:24:57;8.10;;;4.33;;
80334;SDS011;69653;52.674;13.574;2023-09-12T12:27:35;7.00;;;4.50;;
80334;SDS011;69653;52.674;13.574;2023-09-12T12:32:40;9.68;;;4.10;;
80334;SDS011;69653;52.674;13.574;2023-09-12T12:35:16;7.72;;;4.35;;
80334;SDS011;69653;52.674;13.574;2023-09-12T12:37:47;9.85;;;4.30;;
80334;SDS011;69653;52.674;13.574;2023-09-12T12:40:16;8.23;;;4.63;;
80334;SDS011;69653;52.674;13.574;2023-09-12T12:42:44;8.95;;;4.05;;
80334;SDS011;69653;52.674;13.574;2023-09-12T12:45:14;8.30;;;4.20;;
80334;SDS011;69653;52.674;13.574;2023-09-12T12:47:41;9.13;;;4.07;;
80334;SDS011;69653;52.674;13.574;2023-09-12T12:50:16;9.40;;;3.83;;
80334;SDS011;69653;52.674;13.574;2023-09-12T12:52:46;9.52;;;3.63;;
80334;SDS011;69653;52.674;13.574;2023-09-12T12:55:13;7.35;;;3.95;;
80334;SDS011;69653;52.674;13.574;2023-09-12T12:57:41;6.32;;;3.72;;
80334;SDS011;69653;52.674;13.574;2023-09-12T13:00:08;9.25;;;4.05;;
80334;SDS011;69653;52.674;13.574;2023-09-12T13:02:36;10.98;;;4.22;;
80334;SDS011;69653;52.674;13.574;2023-09-12T13:05:02;10.43;;;4.40;;
80334;SDS011;69653;52.674;13.574;2023-09-12T13:07:27;9.73;;;4.13;;
80334;SDS011;69653;52.674;13.574;2023-09-12T13:09:53;6.60;;;4.13;;
80334;SDS011;69653;52.674;13.574;2023-09-12T13:12:18;10.97;;;5.23;;
80334;SDS011;69653;52.674;13.574;2023-09-12T13:14:44;10.93;;;4.70;;
80334;SDS011;69653;52.674;13.574;2023-09-12T13:17:09;8.65;;;4.18;;
80334;SDS011;69653;52.674;13.574;2023-09-12T13:19:34;8.40;;;4.57;;
80334;SDS011;69653;52.674;13.574;2023-09-12T13:22:00;9.93;;;4.22;;
80334;SDS011;69653;52.674;13.574;2023-09-12T13:24:25;8.93;;;4.83;;
80334;SDS011;69653;52.674;13.574;2023-09-12T13:26:51;9.82;;;4.53;;
80334;SDS011;69653;52.674;13.574;2023-09-12T13:29:16;10.77;;;5.03;;
80334;SDS011;69653;52.674;13.574;2023-09-12T13:31:42;7.90;;;4.73;;
80334;SDS011;69653;52.674;13.574;2023-09-12T13:34:07;8.77;;;4.47;;
80334;SDS011;69653;52.674;13.574;2023-09-12T13:36:32;8.23;;;4.10;;
80334;SDS011;69653;52.674;13.574;2023-09-12T13:38:58;9.40;;;4.30;;
80334;SDS011;69653;52.674;13.574;2023-09-12T13:41:23;9.30;;;3.60;;
80334;SDS011;69653;52.674;13.574;2023-09-12T13:43:49;11.95;;;4.80;;
80334;SDS011;69653;52.674;13.574;2023-09-12T13:46:15;9.63;;;4.43;;
80334;SDS011;69653;52.674;13.574;2023-09-12T13:48:41;12.85;;;4.55;;
80334;SDS011;69653;52.674;13.574;2023-09-12T13:51:06;10.52;;;4.78;;
80334;SDS011;69653;52.674;13.574;2023-09-12T13:53:32;9.43;;;4.32;;
80334;SDS011;69653;52.674;13.574;2023-09-12T13:55:57;10.00;;;3.77;;
80334;SDS011;69653;52.674;13.574;2023-09-12T13:58:23;9.75;;;4.60;;
80334;SDS011;69653;52.674;13.574;2023-09-12T14:00:49;11.43;;;4.53;;
80334;SDS011;69653;52.674;13.574;2023-09-12T14:03:14;10.77;;;5.10;;
80334;SDS011;69653;52.674;13.574;2023-09-12T14:05:40;9.47;;;4.27;;
80334;SDS011;69653;52.674;13.574;2023-09-12T14:08:05;11.25;;;4.63;;
80334;SDS011;69653;52.674;13.574;2023-09-12T14:10:30;8.43;;;4.50;;
80334;SDS011;69653;52.674;13.574;2023-09-12T14:12:56;8.97;;;4.30;;
80334;SDS011;69653;52.674;13.574;2023-09-12T14:15:21;9.57;;;4.80;;
80334;SDS011;69653;52.674;13.574;2023-09-12T14:17:46;10.90;;;4.57;;
80334;SDS011;69653;52.674;13.574;2023-09-12T14:20:11;15.43;;;5.00;;
80334;SDS011;69653;52.674;13.574;2023-09-12T14:22:40;11.38;;;4.50;;
80334;SDS011;69653;52.674;13.574;2023-09-12T14:25:06;7.72;;;4.40;;
80334;SDS011;69653;52.674;13.574;2023-09-12T14:27:33;10.43;;;4.53;;
80334;SDS011;69653;52.674;13.574;2023-09-12T14:29:58;11.18;;;5.03;;
80334;SDS011;69653;52.674;13.574;2023-09-12T14:32:24;8.85;;;4.28;;
80334;SDS011;69653;52.674;13.574;2023-09-12T14:34:50;9.88;;;4.32;;
80334;SDS011;69653;52.674;13.574;2023-09-12T14:37:15;8.10;;;4.25;;